Time;durP1;ratioP1;P1;durP2;ratioP2;P2;SDS_P1;SDS_P2;PMS_P1;PMS_P2;Temp;Humidity;BMP_temperature;BMP_pressure;BME280_temperature;BME280_humidity;BME280_pressure;Samples;Min_cycle;Max_cycle;Signal;HPM_P1;HPM_P2
2021/12/20 00:00:38;;;;;;;29.50;8.20;;;;;;;;;;2082212;28;20198;-62
2021/12/20 00:01:38;;;;;;;21.17;6.90;;;;;;;;;;2081567;28;20204;-62
2021/12/20 00:02:39;;;;;;;28.70;8.30;;;;;;;;;;2082411;28;20169;-60
2021/12/20 00:03:39;;;;;;;23.43;8.20;;;;;;;;;;2081868;28;20204;-62
2021/12/20 00:04:40;;;;;;;31.27;8.17;;;;;;;;;;2082513;28;21525;-62
2021/12/20 00:05:40;;;;;;;26.93;8.33;;;;;;;;;;2082232;28;20164;-63
2021/12/20 00:06:40;;;;;;;30.60;8.43;;;;;;;;;;2085377;28;20182;-58
2021/12/20 00:07:41;;;;;;;28.83;8.67;;;;;;;;;;2083136;28;20660;-57
2021/12/20 00:08:41;;;;;;;32.00;8.70;;;;;;;;;;2084407;28;20197;-59
2021/12/20 00:09:42;;;;;;;34.50;9.50;;;;;;;;;;2082667;28;20218;-61
2021/12/20 00:10:42;;;;;;;23.60;8.00;;;;;;;;;;2085468;28;20234;-63
2021/12/20 00:11:43;;;;;;;25.07;7.40;;;;;;;;;;2082563;28;20262;-58
2021/12/20 00:12:43;;;;;;;27.23;8.63;;;;;;;;;;2083847;28;20649;-55
2021/12/20 00:13:43;;;;;;;25.53;8.43;;;;;;;;;;2082480;28;20172;-60
2021/12/20 00:14:44;;;;;;;28.43;8.67;;;;;;;;;;2074689;28;20181;-59
2021/12/20 00:15:45;;;;;;;26.27;9.13;;;;;;;;;;2073831;28;20177;-61
2021/12/20 00:16:45;;;;;;;33.13;8.17;;;;;;;;;;2074265;28;20310;-55
2021/12/20 00:17:45;;;;;;;28.93;8.10;;;;;;;;;;2073988;28;20721;-57
2021/12/20 00:18:46;;;;;;;25.63;8.13;;;;;;;;;;2073875;28;20191;-56
2021/12/20 00:19:46;;;;;;;31.37;8.97;;;;;;;;;;2073670;28;20196;-57
2021/12/20 00:20:46;;;;;;;29.20;8.33;;;;;;;;;;2072014;28;20243;-62
2021/12/20 00:21:46;;;;;;;28.70;8.27;;;;;;;;;;2079148;28;20526;-61
2021/12/20 00:22:47;;;;;;;27.70;9.00;;;;;;;;;;2080964;28;20212;-60
2021/12/20 00:23:47;;;;;;;26.93;8.33;;;;;;;;;;2081256;28;20723;-59
2021/12/20 00:24:47;;;;;;;23.67;7.63;;;;;;;;;;2078865;28;20637;-59
2021/12/20 00:25:48;;;;;;;30.70;8.03;;;;;;;;;;2078676;28;20184;-59
2021/12/20 00:26:49;;;;;;;32.40;8.23;;;;;;;;;;2079741;28;20671;-62
2021/12/20 00:27:49;;;;;;;21.10;7.67;;;;;;;;;;2080706;28;20203;-63
2021/12/20 00:28:49;;;;;;;23.90;8.27;;;;;;;;;;2080958;28;20191;-53
2021/12/20 00:29:50;;;;;;;28.23;8.67;;;;;;;;;;2081211;28;20172;-59
2021/12/20 00:30:50;;;;;;;26.90;8.47;;;;;;;;;;2084354;28;20183;-63
2021/12/20 00:31:50;;;;;;;25.80;7.17;;;;;;;;;;2081510;28;20180;-61
2021/12/20 00:32:50;;;;;;;22.93;8.07;;;;;;;;;;2084877;28;20230;-60
2021/12/20 00:33:51;;;;;;;26.37;7.80;;;;;;;;;;2081512;28;20275;-58
2021/12/20 00:34:51;;;;;;;22.83;7.87;;;;;;;;;;2084260;28;20266;-60
2021/12/20 00:35:51;;;;;;;28.13;8.63;;;;;;;;;;2079568;28;20192;-63
2021/12/20 00:37:01;;;;;;;26.20;7.93;;;;;;;;;;2083541;28;20712;-61
2021/12/20 00:40:38;;;;;;;25.43;7.43;;;;;;;;;;2079938;28;20172;-63
2021/12/20 00:41:39;;;;;;;27.30;8.33;;;;;;;;;;2073222;28;20212;-63
2021/12/20 00:42:39;;;;;;;22.13;8.43;;;;;;;;;;2073097;28;20176;-61
2021/12/20 00:43:39;;;;;;;30.27;7.70;;;;;;;;;;2076633;28;20249;-60
2021/12/20 00:44:40;;;;;;;21.83;8.97;;;;;;;;;;2079643;28;20232;-62
2021/12/20 00:45:40;;;;;;;20.77;7.37;;;;;;;;;;2079837;28;20218;-61
2021/12/20 00:46:40;;;;;;;27.17;9.13;;;;;;;;;;2080727;28;20192;-62
2021/12/20 00:47:41;;;;;;;21.83;8.93;;;;;;;;;;2081097;28;20196;-60
2021/12/20 00:48:41;;;;;;;28.70;8.33;;;;;;;;;;2079228;28;20249;-62
2021/12/20 00:49:41;;;;;;;27.33;8.97;;;;;;;;;;2077879;28;20231;-62
2021/12/20 00:50:42;;;;;;;32.17;9.93;;;;;;;;;;2076700;28;20185;-60
2021/12/20 00:51:42;;;;;;;39.87;9.70;;;;;;;;;;2072439;28;20189;-59
2021/12/20 00:52:43;;;;;;;23.53;8.70;;;;;;;;;;2077432;28;20273;-55
2021/12/20 00:53:44;;;;;;;22.33;8.27;;;;;;;;;;2079430;28;20201;-62
2021/12/20 00:54:45;;;;;;;35.23;9.13;;;;;;;;;;2078191;28;20219;-62
2021/12/20 00:55:45;;;;;;;28.23;9.63;;;;;;;;;;2084312;28;20237;-61
2021/12/20 00:56:45;;;;;;;34.80;8.67;;;;;;;;;;2085322;28;20274;-62
2021/12/20 00:57:46;;;;;;;25.10;8.47;;;;;;;;;;2082515;28;20273;-62
2021/12/20 00:58:46;;;;;;;25.07;8.13;;;;;;;;;;2080886;28;20351;-62
2021/12/20 00:59:47;;;;;;;30.87;9.27;;;;;;;;;;2083094;28;20238;-63
2021/12/20 01:00:48;;;;;;;34.00;8.80;;;;;;;;;;2085594;28;20680;-62
2021/12/20 01:01:49;;;;;;;23.53;8.10;;;;;;;;;;2084113;28;20246;-63
2021/12/20 01:02:49;;;;;;;51.70;22.90;;;;;;;;;;2081108;28;20645;-61
2021/12/20 01:03:50;;;;;;;96.63;45.63;;;;;;;;;;2081571;28;20182;-61
2021/12/20 01:04:50;;;;;;;114.77;57.57;;;;;;;;;;2080599;28;20798;-61
2021/12/20 01:05:50;;;;;;;55.07;22.93;;;;;;;;;;2081805;28;20233;-60
2021/12/20 01:06:50;;;;;;;46.07;18.97;;;;;;;;;;2081301;28;20184;-62
2021/12/20 01:07:52;;;;;;;43.37;13.97;;;;;;;;;;2080855;28;20207;-58
2021/12/20 01:08:53;;;;;;;44.23;13.80;;;;;;;;;;2079403;28;20190;-62
2021/12/20 01:09:57;;;;;;;23.13;9.93;;;;;;;;;;2080800;28;20545;-58
2021/12/20 01:10:58;;;;;;;34.90;11.83;;;;;;;;;;2080709;28;20172;-59
2021/12/20 01:12:03;;;;;;;36.73;11.03;;;;;;;;;;2081624;28;20719;-59
2021/12/20 01:13:04;;;;;;;35.37;10.20;;;;;;;;;;2080609;28;20203;-62
2021/12/20 01:14:04;;;;;;;36.87;11.03;;;;;;;;;;2078497;28;20676;-60
2021/12/20 01:15:05;;;;;;;25.87;10.03;;;;;;;;;;2080678;28;20783;-62
2021/12/20 01:16:07;;;;;;;26.60;10.37;;;;;;;;;;2078432;28;20657;-62
2021/12/20 01:17:07;;;;;;;23.90;9.10;;;;;;;;;;2081501;28;20198;-62
2021/12/20 01:18:07;;;;;;;30.23;10.50;;;;;;;;;;2080824;28;20233;-60
2021/12/20 01:19:07;;;;;;;28.93;9.30;;;;;;;;;;2081711;28;20191;-61
2021/12/20 01:20:08;;;;;;;28.47;9.10;;;;;;;;;;2075275;28;20173;-62
2021/12/20 01:21:09;;;;;;;32.87;8.40;;;;;;;;;;2064876;28;20542;-62
2021/12/20 01:22:09;;;;;;;27.50;9.17;;;;;;;;;;2076972;28;20580;-61
2021/12/20 01:23:10;;;;;;;32.77;8.93;;;;;;;;;;2075696;28;20169;-62
2021/12/20 01:24:10;;;;;;;20.90;8.03;;;;;;;;;;2072104;28;20180;-62
2021/12/20 01:25:11;;;;;;;25.47;8.70;;;;;;;;;;2072500;28;20185;-62
2021/12/20 01:26:11;;;;;;;34.17;9.40;;;;;;;;;;2080657;28;20172;-59
2021/12/20 01:27:12;;;;;;;27.50;9.03;;;;;;;;;;2072124;28;20629;-62
2021/12/20 01:28:12;;;;;;;28.23;9.17;;;;;;;;;;2072732;28;20704;-63
2021/12/20 01:29:12;;;;;;;30.17;9.53;;;;;;;;;;2080640;28;20223;-62
2021/12/20 01:30:14;;;;;;;27.07;10.07;;;;;;;;;;2080708;28;20216;-62
2021/12/20 01:31:14;;;;;;;28.97;9.43;;;;;;;;;;2080866;28;20176;-63
2021/12/20 01:32:14;;;;;;;24.37;8.20;;;;;;;;;;2080804;28;20182;-62
2021/12/20 01:33:15;;;;;;;26.90;8.77;;;;;;;;;;2074357;28;20643;-63
2021/12/20 01:34:15;;;;;;;29.37;9.17;;;;;;;;;;2080411;28;20203;-61
2021/12/20 01:35:16;;;;;;;22.73;8.23;;;;;;;;;;2074843;28;20181;-63
2021/12/20 01:36:16;;;;;;;31.70;10.43;;;;;;;;;;2072198;28;20268;-59
2021/12/20 01:37:16;;;;;;;29.67;9.10;;;;;;;;;;2072102;28;20176;-61
2021/12/20 01:38:17;;;;;;;26.60;9.50;;;;;;;;;;2079820;28;20768;-62
2021/12/20 01:39:17;;;;;;;28.37;8.70;;;;;;;;;;2073837;28;20192;-63
2021/12/20 01:40:18;;;;;;;34.40;10.43;;;;;;;;;;2079598;28;20593;-62
2021/12/20 01:41:18;;;;;;;35.27;8.80;;;;;;;;;;2074050;28;20177;-62
2021/12/20 01:42:19;;;;;;;25.17;8.70;;;;;;;;;;2080749;28;20204;-59
2021/12/20 01:43:20;;;;;;;33.27;10.00;;;;;;;;;;2080796;28;20180;-62
2021/12/20 01:44:21;;;;;;;29.40;10.20;;;;;;;;;;2080204;28;20165;-61
2021/12/20 01:45:23;;;;;;;30.73;9.33;;;;;;;;;;2080512;28;20409;-62
2021/12/20 01:46:24;;;;;;;26.67;9.07;;;;;;;;;;2079983;28;20180;-62
2021/12/20 01:47:31;;;;;;;24.10;8.53;;;;;;;;;;2080457;28;20188;-62
2021/12/20 01:48:32;;;;;;;27.83;9.73;;;;;;;;;;2063979;28;20165;-63
2021/12/20 01:49:40;;;;;;;26.43;9.63;;;;;;;;;;2063532;28;20185;-63
2021/12/20 01:52:59;;;;;;;25.37;8.13;;;;;;;;;;2079935;28;20186;-63
2021/12/20 01:53:59;;;;;;;38.17;9.70;;;;;;;;;;2080354;28;20581;-62
2021/12/20 01:55:00;;;;;;;22.33;7.90;;;;;;;;;;2071427;28;20653;-60
2021/12/20 01:56:00;;;;;;;25.97;8.97;;;;;;;;;;2076954;28;20585;-64
2021/12/20 01:57:00;;;;;;;22.83;7.97;;;;;;;;;;2080669;28;20176;-63
2021/12/20 01:58:01;;;;;;;30.20;10.23;;;;;;;;;;2077364;28;20758;-64
2021/12/20 01:59:02;;;;;;;29.33;9.83;;;;;;;;;;2072613;23;20223;-58
2021/12/20 02:00:04;;;;;;;26.27;7.87;;;;;;;;;;2055185;28;20189;-61
2021/12/20 02:02:06;;;;;;;21.97;7.60;;;;;;;;;;2064499;28;20217;-61
2021/12/20 02:03:08;;;;;;;28.87;8.00;;;;;;;;;;2056341;28;20606;-54
2021/12/20 02:04:10;;;;;;;23.63;7.93;;;;;;;;;;2040494;28;20171;-59
2021/12/20 02:05:18;;;;;;;22.03;8.13;;;;;;;;;;2054961;28;20195;-57
2021/12/20 02:06:30;;;;;;;22.20;7.17;;;;;;;;;;2063856;28;20414;-58
2021/12/20 02:07:48;;;;;;;18.63;7.10;;;;;;;;;;2060571;28;20178;-58
2021/12/20 02:08:48;;;;;;;25.23;8.70;;;;;;;;;;2068949;28;20254;-57
2021/12/20 02:09:48;;;;;;;25.97;7.37;;;;;;;;;;2066973;28;20554;-59
2021/12/20 02:10:49;;;;;;;23.73;7.53;;;;;;;;;;2063439;28;20197;-59
2021/12/20 02:11:50;;;;;;;22.87;7.47;;;;;;;;;;2064790;28;20220;-58
2021/12/20 02:12:50;;;;;;;27.03;8.20;;;;;;;;;;2059884;28;20237;-56
2021/12/20 02:13:50;;;;;;;25.50;8.30;;;;;;;;;;2058494;28;20202;-56
2021/12/20 02:14:51;;;;;;;22.23;7.97;;;;;;;;;;2062178;28;20253;-57
2021/12/20 02:15:51;;;;;;;27.73;8.23;;;;;;;;;;2057048;28;20198;-59
2021/12/20 02:16:52;;;;;;;19.27;7.03;;;;;;;;;;2047256;29;20270;-58
2021/12/20 02:17:52;;;;;;;21.13;7.10;;;;;;;;;;2053506;28;20246;-59
2021/12/20 02:18:52;;;;;;;21.13;7.67;;;;;;;;;;2062006;28;20280;-56
2021/12/20 02:19:52;;;;;;;21.83;7.73;;;;;;;;;;2067967;28;20181;-59
2021/12/20 02:20:53;;;;;;;20.53;6.87;;;;;;;;;;2066526;28;20617;-59
2021/12/20 02:21:53;;;;;;;20.30;7.13;;;;;;;;;;2055490;28;20197;-59
2021/12/20 02:22:55;;;;;;;21.17;7.97;;;;;;;;;;2055838;28;20639;-56
2021/12/20 02:23:55;;;;;;;29.57;7.20;;;;;;;;;;2063334;28;20189;-55
2021/12/20 02:24:55;;;;;;;23.93;7.57;;;;;;;;;;2062440;28;20182;-58
2021/12/20 02:25:56;;;;;;;17.97;7.63;;;;;;;;;;2064627;28;20196;-57
2021/12/20 02:26:56;;;;;;;22.17;7.87;;;;;;;;;;2065217;28;20204;-58
2021/12/20 02:27:58;;;;;;;22.27;6.87;;;;;;;;;;2063849;28;20173;-58
2021/12/20 02:29:04;;;;;;;26.73;8.10;;;;;;;;;;2062718;28;20238;-58
2021/12/20 02:30:14;;;;;;;23.33;8.57;;;;;;;;;;2063029;28;20638;-59
2021/12/20 02:37:27;;;;;;;26.70;7.77;;;;;;;;;;2055419;28;20167;-60
2021/12/20 02:38:27;;;;;;;22.30;7.43;;;;;;;;;;2057229;28;20190;-59
2021/12/20 02:39:28;;;;;;;30.13;8.43;;;;;;;;;;2064065;28;20170;-58
2021/12/20 02:40:28;;;;;;;18.83;7.30;;;;;;;;;;2067784;28;20221;-54
2021/12/20 02:41:32;;;;;;;25.93;8.07;;;;;;;;;;2064127;28;20228;-57
2021/12/20 02:42:36;;;;;;;25.60;7.83;;;;;;;;;;2063715;28;20276;-57
2021/12/20 02:43:40;;;;;;;26.50;7.43;;;;;;;;;;2063821;28;20201;-59
2021/12/20 02:44:53;;;;;;;31.83;8.30;;;;;;;;;;2060141;28;20786;-59
2021/12/20 02:45:57;;;;;;;23.60;7.50;;;;;;;;;;2066106;28;20199;-60
2021/12/20 02:48:01;;;;;;;24.13;7.50;;;;;;;;;;2059334;28;20181;-58
2021/12/20 02:49:01;;;;;;;23.30;8.83;;;;;;;;;;2055924;28;20543;-58
2021/12/20 02:50:01;;;;;;;19.03;6.83;;;;;;;;;;2059544;28;20165;-58
2021/12/20 02:51:02;;;;;;;35.13;8.07;;;;;;;;;;2056140;28;20590;-59
2021/12/20 02:52:06;;;;;;;29.47;8.37;;;;;;;;;;2055748;28;20658;-58
2021/12/20 02:53:06;;;;;;;22.70;6.87;;;;;;;;;;2063997;28;20239;-57
2021/12/20 02:54:08;;;;;;;23.17;7.30;;;;;;;;;;2067863;28;20222;-58
2021/12/20 02:55:09;;;;;;;29.90;8.30;;;;;;;;;;2071343;28;20189;-59
2021/12/20 02:56:09;;;;;;;24.67;8.50;;;;;;;;;;2064237;28;20280;-60
2021/12/20 02:57:09;;;;;;;22.53;8.27;;;;;;;;;;2064467;28;20220;-56
2021/12/20 02:58:09;;;;;;;26.40;8.07;;;;;;;;;;2064670;28;20181;-59
2021/12/20 02:59:10;;;;;;;30.87;8.40;;;;;;;;;;2064011;28;20182;-59
2021/12/20 03:00:11;;;;;;;37.70;9.10;;;;;;;;;;2065654;28;20185;-57
2021/12/20 03:01:11;;;;;;;26.07;8.53;;;;;;;;;;2063247;28;20291;-57
2021/12/20 03:02:12;;;;;;;26.83;8.27;;;;;;;;;;2063398;28;20280;-57
2021/12/20 03:03:12;;;;;;;37.70;9.03;;;;;;;;;;2065795;28;20640;-59
2021/12/20 03:04:12;;;;;;;19.73;7.13;;;;;;;;;;2063595;28;20260;-57
2021/12/20 03:05:13;;;;;;;29.47;7.47;;;;;;;;;;2067395;28;20230;-58
2021/12/20 03:06:18;;;;;;;22.17;7.77;;;;;;;;;;2064742;28;20170;-58
2021/12/20 03:07:25;;;;;;;32.30;8.10;;;;;;;;;;2064967;28;20248;-60
2021/12/20 03:08:25;;;;;;;30.33;9.00;;;;;;;;;;2065495;28;20330;-59
2021/12/20 03:09:31;;;;;;;29.97;8.40;;;;;;;;;;2065042;28;20169;-58
2021/12/20 03:10:32;;;;;;;27.57;7.07;;;;;;;;;;2065509;28;20187;-59
2021/12/20 03:11:32;;;;;;;25.70;8.67;;;;;;;;;;2066064;28;20208;-57
2021/12/20 03:12:33;;;;;;;27.20;7.70;;;;;;;;;;2066267;28;20176;-56
2021/12/20 03:13:33;;;;;;;29.73;8.30;;;;;;;;;;2065122;28;20205;-58
2021/12/20 03:14:40;;;;;;;25.57;7.67;;;;;;;;;;2066515;28;20725;-56
2021/12/20 03:15:41;;;;;;;31.47;8.97;;;;;;;;;;2068216;28;20932;-59
2021/12/20 03:16:41;;;;;;;28.87;7.93;;;;;;;;;;2065289;28;20188;-58
2021/12/20 03:17:42;;;;;;;28.73;8.50;;;;;;;;;;2065139;28;20237;-57
2021/12/20 03:18:42;;;;;;;24.67;8.03;;;;;;;;;;2065782;28;20701;-59
2021/12/20 03:19:42;;;;;;;29.10;7.63;;;;;;;;;;2065766;28;20268;-58
2021/12/20 03:20:43;;;;;;;27.90;8.37;;;;;;;;;;2066086;28;20193;-59
2021/12/20 03:21:43;;;;;;;32.90;9.10;;;;;;;;;;2065890;28;20197;-59
2021/12/20 03:22:43;;;;;;;28.37;8.57;;;;;;;;;;2066222;28;20170;-59
2021/12/20 03:23:43;;;;;;;24.47;7.33;;;;;;;;;;2065961;28;20231;-60
2021/12/20 03:24:44;;;;;;;26.10;7.90;;;;;;;;;;2065452;28;20182;-58
2021/12/20 03:25:44;;;;;;;29.20;8.00;;;;;;;;;;2065916;28;20170;-57
2021/12/20 03:26:47;;;;;;;28.80;8.30;;;;;;;;;;2066093;28;20181;-58
2021/12/20 03:27:47;;;;;;;32.30;7.93;;;;;;;;;;2065895;28;20256;-55
2021/12/20 03:28:47;;;;;;;30.50;9.17;;;;;;;;;;2065880;28;20693;-55
2021/12/20 03:29:48;;;;;;;20.97;7.87;;;;;;;;;;2065912;28;20196;-59
2021/12/20 03:30:48;;;;;;;28.90;8.73;;;;;;;;;;2066128;28;20381;-58
2021/12/20 03:31:48;;;;;;;37.53;8.40;;;;;;;;;;2065984;28;20650;-56
2021/12/20 03:32:49;;;;;;;27.97;7.90;;;;;;;;;;2065894;28;20189;-57
2021/12/20 03:33:49;;;;;;;22.90;8.37;;;;;;;;;;2065763;28;20273;-58
2021/12/20 03:34:49;;;;;;;24.10;7.60;;;;;;;;;;2065596;28;20188;-60
2021/12/20 03:35:49;;;;;;;28.10;8.73;;;;;;;;;;2066043;28;20170;-57
2021/12/20 03:36:50;;;;;;;29.73;8.60;;;;;;;;;;2065876;28;20217;-58
2021/12/20 03:37:50;;;;;;;26.83;8.57;;;;;;;;;;2066135;28;20224;-58
2021/12/20 03:38:50;;;;;;;24.30;8.43;;;;;;;;;;2064888;28;20212;-60
2021/12/20 03:39:51;;;;;;;24.40;9.13;;;;;;;;;;2062756;28;20630;-58
2021/12/20 03:40:51;;;;;;;27.80;8.60;;;;;;;;;;2065094;28;20265;-57
2021/12/20 03:41:51;;;;;;;22.10;8.43;;;;;;;;;;2065147;28;20200;-58
2021/12/20 03:42:52;;;;;;;35.50;9.07;;;;;;;;;;2064788;28;20186;-58
2021/12/20 03:43:52;;;;;;;35.20;10.13;;;;;;;;;;2066459;28;20260;-56
2021/12/20 03:44:52;;;;;;;24.63;9.43;;;;;;;;;;2064288;28;20257;-57
2021/12/20 03:45:57;;;;;;;26.47;7.70;;;;;;;;;;2065358;28;20265;-59
2021/12/20 03:46:58;;;;;;;26.20;8.23;;;;;;;;;;2065683;28;20639;-57
2021/12/20 03:47:58;;;;;;;27.80;8.20;;;;;;;;;;2065027;28;20174;-58
2021/12/20 03:48:59;;;;;;;19.87;7.73;;;;;;;;;;2053764;28;20207;-58
2021/12/20 03:49:59;;;;;;;29.70;9.23;;;;;;;;;;2054478;28;20182;-56
2021/12/20 03:51:01;;;;;;;32.63;9.07;;;;;;;;;;2056614;28;20188;-57
2021/12/20 03:52:04;;;;;;;31.90;9.80;;;;;;;;;;2057795;28;20653;-58
2021/12/20 03:53:04;;;;;;;26.27;8.53;;;;;;;;;;2056940;28;20842;-58
2021/12/20 03:54:04;;;;;;;30.13;9.60;;;;;;;;;;2056997;28;20240;-58
2021/12/20 03:55:06;;;;;;;36.27;10.03;;;;;;;;;;2057725;28;20185;-56
2021/12/20 03:56:06;;;;;;;27.27;9.93;;;;;;;;;;2065827;28;20192;-58
2021/12/20 03:57:07;;;;;;;35.30;10.60;;;;;;;;;;2064732;28;20230;-58
2021/12/20 03:58:07;;;;;;;38.20;10.10;;;;;;;;;;2068519;28;20184;-55
2021/12/20 03:59:07;;;;;;;31.00;9.57;;;;;;;;;;2065530;28;20411;-58
2021/12/20 04:00:10;;;;;;;34.60;9.63;;;;;;;;;;2064326;28;20641;-59
2021/12/20 04:01:14;;;;;;;37.47;9.50;;;;;;;;;;2065959;28;20650;-60
2021/12/20 04:02:18;;;;;;;37.30;9.53;;;;;;;;;;2057256;28;20209;-58
2021/12/20 04:03:18;;;;;;;31.27;9.87;;;;;;;;;;2064876;28;20177;-60
2021/12/20 04:04:19;;;;;;;28.10;8.77;;;;;;;;;;2063114;28;20808;-57
2021/12/20 04:05:19;;;;;;;33.40;8.80;;;;;;;;;;2068806;28;20177;-57
2021/12/20 04:06:20;;;;;;;20.50;8.57;;;;;;;;;;2064160;28;20170;-59
2021/12/20 04:07:21;;;;;;;25.57;8.47;;;;;;;;;;2071214;28;20184;-58
2021/12/20 04:08:21;;;;;;;25.43;8.50;;;;;;;;;;2064694;28;20638;-58
2021/12/20 04:09:21;;;;;;;25.50;8.50;;;;;;;;;;2065353;28;20166;-58
2021/12/20 04:10:21;;;;;;;26.30;8.73;;;;;;;;;;2064742;28;20185;-56
2021/12/20 04:11:22;;;;;;;38.23;9.47;;;;;;;;;;2065913;28;20197;-56
2021/12/20 04:12:22;;;;;;;35.97;9.17;;;;;;;;;;2066268;28;20174;-57
2021/12/20 04:13:23;;;;;;;29.03;9.40;;;;;;;;;;2065463;28;20184;-59
2021/12/20 04:14:23;;;;;;;29.57;9.83;;;;;;;;;;2070351;28;20260;-55
2021/12/20 04:15:24;;;;;;;25.07;8.07;;;;;;;;;;2064002;28;20170;-57
2021/12/20 04:16:24;;;;;;;28.30;10.43;;;;;;;;;;2065113;28;20177;-55
2021/12/20 04:17:25;;;;;;;28.20;9.60;;;;;;;;;;2065351;28;20173;-58
2021/12/20 04:18:26;;;;;;;32.13;9.37;;;;;;;;;;2064880;28;20177;-58
2021/12/20 04:19:26;;;;;;;30.97;9.83;;;;;;;;;;2064343;28;20185;-56
2021/12/20 04:20:26;;;;;;;39.00;10.30;;;;;;;;;;2063953;28;20192;-56
2021/12/20 04:21:26;;;;;;;33.60;9.40;;;;;;;;;;2065444;28;20169;-56
2021/12/20 04:22:27;;;;;;;24.90;9.70;;;;;;;;;;2064897;28;20762;-58
2021/12/20 04:23:27;;;;;;;21.47;8.03;;;;;;;;;;2065069;28;20172;-56
2021/12/20 04:24:27;;;;;;;28.07;9.27;;;;;;;;;;2064845;28;20165;-60
2021/12/20 04:25:27;;;;;;;30.17;9.53;;;;;;;;;;2064683;28;20209;-55
2021/12/20 04:26:28;;;;;;;28.33;10.00;;;;;;;;;;2064670;28;20256;-57
2021/12/20 04:27:28;;;;;;;34.23;10.10;;;;;;;;;;2065122;28;20313;-58
2021/12/20 04:28:28;;;;;;;29.13;9.23;;;;;;;;;;2064450;28;20201;-57
2021/12/20 04:29:29;;;;;;;29.00;9.10;;;;;;;;;;2066084;28;20173;-55
2021/12/20 04:30:31;;;;;;;36.73;10.17;;;;;;;;;;2064581;28;20189;-59
2021/12/20 04:31:33;;;;;;;27.83;9.33;;;;;;;;;;2065554;28;20174;-60
2021/12/20 04:32:34;;;;;;;29.77;9.27;;;;;;;;;;2065489;28;20498;-59
2021/12/20 04:33:34;;;;;;;37.00;9.67;;;;;;;;;;2064579;28;20863;-59
2021/12/20 04:34:34;;;;;;;35.67;10.07;;;;;;;;;;2064995;28;20228;-58
2021/12/20 04:35:35;;;;;;;30.97;9.73;;;;;;;;;;2065182;28;20178;-60
2021/12/20 04:36:35;;;;;;;24.63;9.23;;;;;;;;;;2065454;28;20170;-57
2021/12/20 04:37:36;;;;;;;27.47;9.13;;;;;;;;;;2065310;28;20196;-59
2021/12/20 04:38:36;;;;;;;24.23;9.23;;;;;;;;;;2065106;28;20201;-60
2021/12/20 04:39:36;;;;;;;25.53;8.97;;;;;;;;;;2065314;28;20174;-57
2021/12/20 04:40:37;;;;;;;25.57;8.50;;;;;;;;;;2065461;28;20196;-57
2021/12/20 04:41:37;;;;;;;26.37;8.77;;;;;;;;;;2065158;28;20162;-57
2021/12/20 04:42:37;;;;;;;22.70;7.87;;;;;;;;;;2065738;28;20781;-55
2021/12/20 04:43:38;;;;;;;17.10;7.53;;;;;;;;;;2065512;28;20277;-58
2021/12/20 04:44:38;;;;;;;24.13;8.07;;;;;;;;;;2065295;28;20182;-58
2021/12/20 04:45:38;;;;;;;19.20;7.17;;;;;;;;;;2065108;28;20597;-56
2021/12/20 04:46:38;;;;;;;27.33;8.70;;;;;;;;;;2056910;28;20578;-59
2021/12/20 04:47:39;;;;;;;25.53;8.23;;;;;;;;;;2056755;28;20182;-57
2021/12/20 04:48:39;;;;;;;30.97;7.77;;;;;;;;;;2065319;28;20213;-59
2021/12/20 04:49:40;;;;;;;32.83;7.60;;;;;;;;;;2065252;28;20181;-56
2021/12/20 04:50:40;;;;;;;22.47;8.77;;;;;;;;;;2065434;28;20182;-58
2021/12/20 04:51:40;;;;;;;20.30;8.00;;;;;;;;;;2064533;28;20185;-59
2021/12/20 04:52:41;;;;;;;31.40;8.33;;;;;;;;;;2064758;28;20539;-58
2021/12/20 04:53:42;;;;;;;23.60;8.17;;;;;;;;;;2065960;28;20177;-58
2021/12/20 04:54:42;;;;;;;24.97;8.57;;;;;;;;;;2066378;28;20423;-57
2021/12/20 04:55:42;;;;;;;26.03;8.57;;;;;;;;;;2065895;28;20174;-59
2021/12/20 04:56:43;;;;;;;25.07;8.57;;;;;;;;;;2066058;28;20288;-58
2021/12/20 04:57:47;;;;;;;29.30;8.37;;;;;;;;;;2065941;28;20165;-60
2021/12/20 04:58:47;;;;;;;19.73;9.00;;;;;;;;;;2064989;28;20228;-57
2021/12/20 04:59:48;;;;;;;20.80;8.30;;;;;;;;;;2065810;28;20454;-58
2021/12/20 05:00:48;;;;;;;29.00;8.57;;;;;;;;;;2057677;28;20249;-59
2021/12/20 05:01:48;;;;;;;23.50;8.67;;;;;;;;;;2057627;28;20838;-58
2021/12/20 05:02:49;;;;;;;22.57;9.43;;;;;;;;;;2065777;28;20170;-58
2021/12/20 05:03:49;;;;;;;22.57;8.47;;;;;;;;;;2064708;28;20190;-58
2021/12/20 05:04:49;;;;;;;26.10;8.90;;;;;;;;;;2065302;28;20252;-59
2021/12/20 05:05:50;;;;;;;30.17;9.47;;;;;;;;;;2066098;28;20170;-59
2021/12/20 05:06:50;;;;;;;21.93;9.23;;;;;;;;;;2066948;28;20173;-58
2021/12/20 05:07:51;;;;;;;29.77;8.90;;;;;;;;;;2066845;28;20174;-55
2021/12/20 05:08:54;;;;;;;18.20;8.93;;;;;;;;;;2066850;28;20288;-59
2021/12/20 05:09:59;;;;;;;27.17;8.83;;;;;;;;;;2066753;28;20236;-56
2021/12/20 05:11:00;;;;;;;31.37;9.03;;;;;;;;;;2066904;28;20960;-57
2021/12/20 05:12:10;;;;;;;26.20;8.50;;;;;;;;;;2066159;28;20479;-58
2021/12/20 05:13:11;;;;;;;28.17;8.43;;;;;;;;;;2066930;28;20418;-60
2021/12/20 05:14:11;;;;;;;19.60;6.73;;;;;;;;;;2067303;28;20419;-56
2021/12/20 05:15:11;;;;;;;21.83;7.13;;;;;;;;;;2067345;28;20685;-58
2021/12/20 05:16:12;;;;;;;20.30;8.27;;;;;;;;;;2067442;28;20178;-60
2021/12/20 05:17:13;;;;;;;19.23;7.90;;;;;;;;;;2066889;28;20177;-58
2021/12/20 05:18:13;;;;;;;30.90;7.90;;;;;;;;;;2066286;28;20185;-59
2021/12/20 05:19:13;;;;;;;21.13;7.40;;;;;;;;;;2066238;28;20429;-57
2021/12/20 05:20:14;;;;;;;25.10;8.37;;;;;;;;;;2066488;28;20200;-57
2021/12/20 05:21:14;;;;;;;27.43;8.47;;;;;;;;;;2066490;28;20216;-58
2021/12/20 05:22:15;;;;;;;23.37;8.30;;;;;;;;;;2065733;28;20206;-61
2021/12/20 05:23:15;;;;;;;21.63;8.07;;;;;;;;;;2065447;28;20629;-59
2021/12/20 05:24:15;;;;;;;29.60;9.93;;;;;;;;;;2066055;28;20243;-59
2021/12/20 05:25:16;;;;;;;29.03;7.80;;;;;;;;;;2066116;28;20178;-59
2021/12/20 05:26:16;;;;;;;24.13;7.57;;;;;;;;;;2069270;28;20170;-57
2021/12/20 05:27:16;;;;;;;23.40;8.43;;;;;;;;;;2059679;28;20178;-57
2021/12/20 05:28:17;;;;;;;23.50;7.97;;;;;;;;;;2059848;28;20197;-58
2021/12/20 05:29:17;;;;;;;24.97;8.10;;;;;;;;;;2067328;28;20255;-60
2021/12/20 05:30:18;;;;;;;19.40;8.63;;;;;;;;;;2068782;28;20169;-58
2021/12/20 05:31:18;;;;;;;21.23;8.17;;;;;;;;;;2059355;28;20214;-57
2021/12/20 05:32:19;;;;;;;25.97;8.53;;;;;;;;;;2064369;28;20235;-61
2021/12/20 05:33:20;;;;;;;23.37;7.97;;;;;;;;;;2058821;28;20221;-58
2021/12/20 05:34:21;;;;;;;21.17;8.67;;;;;;;;;;2059762;28;20174;-58
2021/12/20 05:35:22;;;;;;;27.97;8.47;;;;;;;;;;2066601;28;20177;-60
2021/12/20 05:36:22;;;;;;;30.67;9.63;;;;;;;;;;2058341;28;20263;-59
2021/12/20 05:37:22;;;;;;;30.30;9.00;;;;;;;;;;2066501;28;20676;-58
2021/12/20 05:38:23;;;;;;;22.67;8.70;;;;;;;;;;2065864;28;20288;-56
2021/12/20 05:39:23;;;;;;;24.00;8.77;;;;;;;;;;2064549;28;20208;-59
2021/12/20 05:40:24;;;;;;;27.37;9.60;;;;;;;;;;2060435;28;20193;-58
2021/12/20 05:41:24;;;;;;;26.07;8.13;;;;;;;;;;2056472;28;20170;-58
2021/12/20 05:42:25;;;;;;;25.50;8.50;;;;;;;;;;2069478;28;20212;-57
2021/12/20 05:43:25;;;;;;;29.40;8.97;;;;;;;;;;2064081;28;20166;-57
2021/12/20 05:44:25;;;;;;;22.33;7.73;;;;;;;;;;2068242;28;20185;-59
2021/12/20 05:45:26;;;;;;;22.23;8.27;;;;;;;;;;2063237;28;20528;-61
2021/12/20 05:46:26;;;;;;;24.70;9.00;;;;;;;;;;2065069;28;20168;-59
2021/12/20 05:47:26;;;;;;;27.10;9.17;;;;;;;;;;2065453;28;20208;-59
2021/12/20 05:48:26;;;;;;;26.50;9.33;;;;;;;;;;2064044;28;20193;-56
2021/12/20 05:49:27;;;;;;;26.87;8.70;;;;;;;;;;2070401;28;20238;-58
2021/12/20 05:50:27;;;;;;;20.00;8.30;;;;;;;;;;2064278;28;20170;-57
2021/12/20 05:51:28;;;;;;;22.23;8.20;;;;;;;;;;2064417;28;20170;-57
2021/12/20 05:52:28;;;;;;;25.60;9.37;;;;;;;;;;2064782;28;20182;-57
2021/12/20 05:53:28;;;;;;;29.63;9.73;;;;;;;;;;2064055;28;20190;-58
2021/12/20 05:54:29;;;;;;;30.50;9.90;;;;;;;;;;2065174;28;20210;-58
2021/12/20 05:55:29;;;;;;;30.40;9.70;;;;;;;;;;2069317;28;20240;-56
2021/12/20 05:56:30;;;;;;;34.53;10.07;;;;;;;;;;2065550;28;20188;-55
2021/12/20 05:57:32;;;;;;;29.27;9.70;;;;;;;;;;2069419;28;20545;-57
2021/12/20 05:58:32;;;;;;;23.03;9.87;;;;;;;;;;2064435;28;20232;-55
2021/12/20 05:59:33;;;;;;;28.43;10.10;;;;;;;;;;2064330;28;20407;-58
2021/12/20 06:00:33;;;;;;;26.63;9.23;;;;;;;;;;2064450;28;20174;-58
2021/12/20 06:01:33;;;;;;;30.40;9.53;;;;;;;;;;2065400;28;20177;-57
2021/12/20 06:02:34;;;;;;;30.40;10.27;;;;;;;;;;2066507;28;20173;-56
2021/12/20 06:03:34;;;;;;;22.53;9.43;;;;;;;;;;2068742;28;20678;-58
2021/12/20 06:04:34;;;;;;;19.07;10.10;;;;;;;;;;2067943;28;20181;-57
2021/12/20 06:05:34;;;;;;;34.73;9.93;;;;;;;;;;2068301;28;20204;-58
2021/12/20 06:06:35;;;;;;;51.33;12.33;;;;;;;;;;2066021;28;20930;-58
2021/12/20 06:07:39;;;;;;;37.80;10.37;;;;;;;;;;2067322;28;20257;-57
2021/12/20 06:08:39;;;;;;;44.33;11.50;;;;;;;;;;2063862;28;20251;-58
2021/12/20 06:09:40;;;;;;;49.93;12.50;;;;;;;;;;2064460;28;20547;-58
2021/12/20 06:10:40;;;;;;;44.97;11.73;;;;;;;;;;2064421;28;20646;-59
2021/12/20 06:11:40;;;;;;;46.00;12.10;;;;;;;;;;2065290;28;20257;-57
2021/12/20 06:12:41;;;;;;;45.37;12.83;;;;;;;;;;2063908;28;20186;-56